createdAt,value
2022-12-18T00:00:10.346Z,66.82
2022-12-18T00:02:45.992Z,67.12
2022-12-18T00:05:14.629Z,66.99
2022-12-18T00:07:43.010Z,67.03
2022-12-18T00:10:11.490Z,66.79
2022-12-18T00:12:45.618Z,66.86
2022-12-18T00:15:14.089Z,66.67
2022-12-18T00:17:42.640Z,66.80
2022-12-18T00:20:12.409Z,67.07
2022-12-18T00:22:40.783Z,67.00
2022-12-18T00:25:10.466Z,66.68
2022-12-18T00:27:38.812Z,66.87
2022-12-18T00:30:09.659Z,66.96
2022-12-18T00:32:38.094Z,67.03
2022-12-18T00:35:08.978Z,66.92
2022-12-18T00:37:37.456Z,67.16
2022-12-18T00:40:09.709Z,67.14
2022-12-18T00:42:57.411Z,67.17
2022-12-18T00:45:26.837Z,67.07
2022-12-18T00:47:56.422Z,67.31
2022-12-18T00:50:25.938Z,67.06
2022-12-18T00:52:54.310Z,66.90
2022-12-18T00:55:22.820Z,67.10
2022-12-18T00:57:53.012Z,66.98
2022-12-18T01:00:22.628Z,66.92
2022-12-18T01:02:51.162Z,67.06
2022-12-18T01:05:19.929Z,66.84
2022-12-18T01:07:48.333Z,66.87
2022-12-18T01:10:17.167Z,67.02
2022-12-18T01:12:46.058Z,67.14
2022-12-18T01:15:15.265Z,67.05
2022-12-18T01:17:44.624Z,66.93
2022-12-18T01:20:14.377Z,67.10
2022-12-18T01:22:42.690Z,66.60
2022-12-18T01:25:11.340Z,67.10
2022-12-18T01:27:39.689Z,66.86
2022-12-18T01:30:11.016Z,67.05
2022-12-18T01:32:39.503Z,67.18
2022-12-18T01:35:09.529Z,66.71
2022-12-18T01:37:37.938Z,66.99
2022-12-18T01:40:09.943Z,67.10
2022-12-18T01:42:38.419Z,66.71
2022-12-18T01:45:24.128Z,66.90
2022-12-18T01:47:54.590Z,67.04
2022-12-18T01:50:25.514Z,67.08
2022-12-18T01:52:59.035Z,66.75
2022-12-18T01:55:30.403Z,66.85
2022-12-18T01:58:01.288Z,66.57
2022-12-18T02:00:31.006Z,66.58
2022-12-18T02:02:59.520Z,66.71
2022-12-18T02:05:41.737Z,66.53
2022-12-18T02:08:17.858Z,66.79
2022-12-18T02:10:54.374Z,66.66
2022-12-18T02:13:33.200Z,66.45
2022-12-18T02:16:08.955Z,66.77
2022-12-18T02:18:42.189Z,66.65
2022-12-18T02:21:22.444Z,66.65
2022-12-18T02:24:05.746Z,66.52
2022-12-18T02:26:38.720Z,66.43
2022-12-18T02:29:12.861Z,66.62
2022-12-18T02:31:44.696Z,66.72
2022-12-18T02:34:14.618Z,66.50
2022-12-18T02:36:46.280Z,66.38
2022-12-18T02:39:16.771Z,66.69
2022-12-18T02:41:55.420Z,66.57
2022-12-18T02:44:24.110Z,66.76
2022-12-18T02:46:54.824Z,66.50
2022-12-18T02:49:32.773Z,66.56
2022-12-18T02:52:13.212Z,66.47
2022-12-18T02:54:56.339Z,66.45
2022-12-18T02:57:34.635Z,66.43
2022-12-18T03:00:07.248Z,66.34
2022-12-18T03:02:42.802Z,66.46
2022-12-18T03:05:16.181Z,66.23
2022-12-18T03:07:51.109Z,66.20
2022-12-18T03:10:26.446Z,66.58
2022-12-18T03:13:00.299Z,66.38
2022-12-18T03:15:31.717Z,66.43
2022-12-18T03:18:10.989Z,66.53
2022-12-18T03:20:42.348Z,66.43
2022-12-18T03:23:16.637Z,66.34
2022-12-18T03:25:50.534Z,66.52
2022-12-18T03:28:22.596Z,66.59
2022-12-18T03:30:56.502Z,66.35
2022-12-18T03:33:30.838Z,66.49
2022-12-18T03:35:59.511Z,66.62
2022-12-18T03:38:28.099Z,66.63
2022-12-18T03:41:04.669Z,66.41
2022-12-18T03:43:45.775Z,66.71
2022-12-18T03:46:22.007Z,66.60
2022-12-18T03:48:55.548Z,66.49
2022-12-18T03:51:29.115Z,66.31
2022-12-18T03:54:01.486Z,66.31
2022-12-18T03:56:40.327Z,66.10
2022-12-18T03:59:11.177Z,66.35
2022-12-18T04:01:43.547Z,66.28
2022-12-18T04:04:15.657Z,66.64
2022-12-18T04:06:46.845Z,66.26
2022-12-18T04:09:16.140Z,66.51
2022-12-18T04:11:48.225Z,66.55
2022-12-18T04:14:18.324Z,66.52
2022-12-18T04:16:48.463Z,66.41
2022-12-18T04:19:18.031Z,66.33
2022-12-18T04:21:47.013Z,66.44
2022-12-18T04:24:15.563Z,66.38
2022-12-18T04:26:50.645Z,66.27
2022-12-18T04:29:24.030Z,66.30
2022-12-18T04:31:52.723Z,66.39
2022-12-18T04:34:21.785Z,66.65
2022-12-18T04:36:52.287Z,66.45
2022-12-18T04:39:22.296Z,66.21
2022-12-18T04:41:51.618Z,66.29
2022-12-18T04:44:19.985Z,66.19
2022-12-18T04:46:48.348Z,66.04
2022-12-18T04:49:16.850Z,66.09
2022-12-18T04:51:45.149Z,65.95
2022-12-18T04:54:13.400Z,66.35
2022-12-18T04:56:42.503Z,65.74
2022-12-18T04:59:10.837Z,65.72
2022-12-18T05:01:40.245Z,65.57
2022-12-18T05:04:08.793Z,65.46
2022-12-18T05:06:37.354Z,65.66
2022-12-18T05:09:06.044Z,65.76
2022-12-18T05:11:34.444Z,65.94
2022-12-18T05:14:03.007Z,65.62
2022-12-18T05:16:31.440Z,65.59
2022-12-18T05:18:59.974Z,65.74
2022-12-18T05:21:28.459Z,65.59
2022-12-18T05:23:56.837Z,65.74
2022-12-18T05:26:25.217Z,65.88
2022-12-18T05:28:53.596Z,65.82
2022-12-18T05:31:22.063Z,65.96
2022-12-18T05:33:50.467Z,66.03
2022-12-18T05:36:19.006Z,65.92
2022-12-18T05:38:47.336Z,66.06
2022-12-18T05:41:15.750Z,66.00
2022-12-18T05:43:44.342Z,66.21
2022-12-18T05:46:16.331Z,66.39
2022-12-18T05:48:45.816Z,66.18
2022-12-18T05:51:16.601Z,66.35
2022-12-18T05:53:45.948Z,66.39
2022-12-18T05:56:16.437Z,66.36
2022-12-18T05:58:45.300Z,66.42
2022-12-18T06:01:16.598Z,66.62
2022-12-18T06:03:45.724Z,66.68
2022-12-18T06:06:20.194Z,66.76
2022-12-18T06:08:48.948Z,66.64
2022-12-18T06:11:20.333Z,66.49
2022-12-18T06:13:56.299Z,66.58
2022-12-18T06:16:27.645Z,66.60
2022-12-18T06:18:57.719Z,66.69
2022-12-18T06:21:26.242Z,67.06
2022-12-18T06:23:55.032Z,67.22
2022-12-18T06:26:27.992Z,66.99
2022-12-18T06:28:56.938Z,67.22
2022-12-18T06:31:26.061Z,67.30
2022-12-18T06:33:54.597Z,67.49
2022-12-18T06:36:23.295Z,67.44
2022-12-18T06:38:51.717Z,67.49
2022-12-18T06:41:21.888Z,67.60
2022-12-18T06:43:50.573Z,67.47
2022-12-18T06:46:19.177Z,67.55
2022-12-18T06:48:50.595Z,67.33
2022-12-18T06:51:21.022Z,67.50
2022-12-18T06:53:50.144Z,67.49
2022-12-18T06:56:18.481Z,67.67
2022-12-18T06:58:46.744Z,67.69
2022-12-18T07:01:15.616Z,67.69
2022-12-18T07:03:45.244Z,67.54
2022-12-18T07:06:19.002Z,67.41
2022-12-18T07:08:48.573Z,67.45
2022-12-18T07:11:18.732Z,67.52
2022-12-18T07:13:48.236Z,67.63
2022-12-18T07:16:24.723Z,67.75
2022-12-18T07:18:54.929Z,67.72
2022-12-18T07:21:24.142Z,67.76
2022-12-18T07:23:52.817Z,67.77
2022-12-18T07:26:22.736Z,67.80
2022-12-18T07:28:51.426Z,67.70
2022-12-18T07:31:22.087Z,67.56
2022-12-18T07:33:52.016Z,67.77
2022-12-18T07:36:20.631Z,67.83
2022-12-18T07:38:50.527Z,67.72
2022-12-18T07:41:19.363Z,67.68
2022-12-18T07:43:47.979Z,67.50
2022-12-18T07:46:17.098Z,67.43
2022-12-18T07:48:49.432Z,67.27
2022-12-18T07:51:20.169Z,67.21
2022-12-18T07:53:51.328Z,67.29
2022-12-18T07:56:30.779Z,67.03
2022-12-18T07:59:00.478Z,67.13
2022-12-18T08:01:29.489Z,67.48
2022-12-18T08:03:59.261Z,67.63
2022-12-18T08:06:27.844Z,67.48
2022-12-18T08:08:56.887Z,67.17
2022-12-18T08:11:27.190Z,67.29
2022-12-18T08:13:55.850Z,67.06
2022-12-18T08:16:24.296Z,67.28
2022-12-18T08:18:53.558Z,67.44
2022-12-18T08:21:24.085Z,67.44
2022-12-18T08:23:53.994Z,67.37
2022-12-18T08:26:23.290Z,67.15
2022-12-18T08:28:52.097Z,67.26
2022-12-18T08:31:21.049Z,67.15
2022-12-18T08:33:51.905Z,67.11
2022-12-18T08:36:21.210Z,66.93
2022-12-18T08:38:49.814Z,66.70
2022-12-18T08:41:19.862Z,66.96
2022-12-18T08:44:06.453Z,66.81
2022-12-18T08:46:37.141Z,67.00
2022-12-18T08:49:06.498Z,67.23
2022-12-18T08:51:35.435Z,66.76
2022-12-18T08:54:05.139Z,66.56
2022-12-18T08:56:35.275Z,66.60
2022-12-18T08:59:04.766Z,66.69
2022-12-18T09:01:33.528Z,66.63
2022-12-18T09:04:03.377Z,66.50
2022-12-18T09:06:33.132Z,66.44
2022-12-18T09:09:01.749Z,66.49
2022-12-18T09:11:32.445Z,66.80
2022-12-18T09:14:02.347Z,66.79
2022-12-18T09:16:32.936Z,66.75
2022-12-18T09:19:06.476Z,66.46
2022-12-18T09:21:37.197Z,66.53
2022-12-18T09:24:08.728Z,66.16
2022-12-18T09:26:37.833Z,66.18
2022-12-18T09:29:08.027Z,66.15
2022-12-18T09:31:37.017Z,66.36
2022-12-18T09:34:05.448Z,66.59
2022-12-18T09:36:34.651Z,66.53
2022-12-18T09:39:07.826Z,66.26
2022-12-18T09:41:46.187Z,66.23
2022-12-18T09:44:28.432Z,66.10
2022-12-18T09:47:12.323Z,66.21
2022-12-18T09:49:45.673Z,66.03
2022-12-18T09:52:20.344Z,66.23
2022-12-18T09:54:50.888Z,65.94
2022-12-18T09:57:22.801Z,65.92
2022-12-18T09:59:55.872Z,65.90
2022-12-18T10:02:26.474Z,65.60
2022-12-18T10:05:07.641Z,65.58
2022-12-18T10:07:44.927Z,65.38
2022-12-18T10:10:23.957Z,65.42
2022-12-18T10:13:04.730Z,65.43
2022-12-18T10:15:37.606Z,65.51
2022-12-18T10:18:22.084Z,65.42
2022-12-18T10:20:53.627Z,65.40
2022-12-18T10:23:29.390Z,65.56
2022-12-18T10:26:04.527Z,65.72
2022-12-18T10:28:39.664Z,65.41
2022-12-18T10:31:15.041Z,65.56
2022-12-18T10:33:44.314Z,65.35
2022-12-18T10:36:13.306Z,65.40
2022-12-18T10:38:42.893Z,65.47
2022-12-18T10:41:27.511Z,65.54
2022-12-18T10:44:15.690Z,65.41
2022-12-18T10:46:45.499Z,65.09
2022-12-18T10:49:29.685Z,65.14
2022-12-18T10:52:18.036Z,65.04
2022-12-18T10:54:52.148Z,64.96
2022-12-18T10:57:32.932Z,65.18
2022-12-18T11:00:21.072Z,65.51
2022-12-18T11:02:50.022Z,65.67
2022-12-18T11:05:31.292Z,65.53
2022-12-18T11:08:00.847Z,65.19
2022-12-18T11:10:33.461Z,65.22
2022-12-18T11:13:19.302Z,65.00
2022-12-18T11:15:48.297Z,64.84
2022-12-18T11:18:21.090Z,65.24
2022-12-18T11:20:58.566Z,65.04
2022-12-18T11:23:28.510Z,64.63
2022-12-18T11:25:59.240Z,64.85
2022-12-18T11:28:43.157Z,64.85
2022-12-18T11:31:31.781Z,64.99
2022-12-18T11:37:01.810Z,64.79
2022-12-18T11:39:37.420Z,64.69
2022-12-18T11:42:13.076Z,64.71
2022-12-18T11:44:48.724Z,64.63
2022-12-18T11:47:26.659Z,64.89
2022-12-18T11:50:01.254Z,64.70
2022-12-18T11:52:36.837Z,64.63
2022-12-18T11:55:15.478Z,64.74
2022-12-18T11:57:56.165Z,64.51
2022-12-18T12:00:25.494Z,64.79
2022-12-18T12:03:24.294Z,64.73
2022-12-18T12:06:07.847Z,64.60
2022-12-18T12:08:48.302Z,64.62
2022-12-18T12:11:28.356Z,64.99
2022-12-18T12:14:21.407Z,64.80
2022-12-18T12:16:57.876Z,65.07
2022-12-18T12:19:41.101Z,64.75
2022-12-18T12:22:19.359Z,64.65
2022-12-18T12:24:58.245Z,64.49
2022-12-18T12:27:40.241Z,64.20
2022-12-18T12:30:15.496Z,64.27
2022-12-18T12:32:48.950Z,64.05
2022-12-18T12:35:30.675Z,63.91
2022-12-18T12:38:10.019Z,64.18
2022-12-18T12:40:53.956Z,64.12
2022-12-18T12:43:34.316Z,64.21
2022-12-18T12:46:07.555Z,64.34
2022-12-18T12:48:46.026Z,64.38
2022-12-18T12:51:21.374Z,64.15
2022-12-18T12:53:52.293Z,64.07
2022-12-18T12:56:22.342Z,64.32
2022-12-18T12:59:06.119Z,64.23
2022-12-18T13:01:41.987Z,64.52
2022-12-18T13:04:22.825Z,64.65
2022-12-18T13:07:00.380Z,64.67
2022-12-18T13:09:33.296Z,64.78
2022-12-18T13:12:34.860Z,64.43
2022-12-18T13:15:21.789Z,64.72
2022-12-18T13:18:03.602Z,64.48
2022-12-18T13:20:36.907Z,64.30
2022-12-18T13:23:27.434Z,64.25
2022-12-18T13:25:57.312Z,64.14
2022-12-18T13:28:56.981Z,64.09
2022-12-18T13:32:00.486Z,64.11
2022-12-18T13:34:46.623Z,64.19
2022-12-18T13:37:32.062Z,64.14
2022-12-18T13:40:00.644Z,63.96
2022-12-18T13:43:01.144Z,63.88
2022-12-18T13:48:38.914Z,64.09
2022-12-18T13:51:10.896Z,63.82
2022-12-18T13:53:57.929Z,64.39
2022-12-18T13:56:29.707Z,64.58
2022-12-18T13:59:14.645Z,64.53
2022-12-18T14:01:50.367Z,64.60
2022-12-18T14:04:23.099Z,64.99
2022-12-18T14:06:54.235Z,64.81
2022-12-18T14:09:26.969Z,64.99
2022-12-18T14:12:18.130Z,65.16
2022-12-18T14:14:48.761Z,65.26
2022-12-18T14:17:19.045Z,65.07
2022-12-18T14:19:51.155Z,65.39
2022-12-18T14:22:22.399Z,65.53
2022-12-18T14:25:14.294Z,65.16
2022-12-18T14:27:46.235Z,64.99
2022-12-18T14:30:37.403Z,65.00
2022-12-18T14:33:10.668Z,65.33
2022-12-18T14:35:40.886Z,65.32
2022-12-18T14:38:21.819Z,65.05
2022-12-18T14:40:57.089Z,65.12
2022-12-18T14:43:26.450Z,65.11
2022-12-18T14:45:56.266Z,65.51
2022-12-18T14:48:39.419Z,65.44
2022-12-18T14:51:16.562Z,65.67
2022-12-18T14:53:52.428Z,65.31
2022-12-18T14:56:25.583Z,65.59
2022-12-18T14:58:56.631Z,65.64
2022-12-18T15:01:28.783Z,65.76
2022-12-18T15:03:58.714Z,65.55
2022-12-18T15:06:31.183Z,65.55
2022-12-18T15:09:01.314Z,65.61
2022-12-18T15:11:36.219Z,65.74
2022-12-18T15:14:38.921Z,65.44
2022-12-18T15:17:17.470Z,65.26
2022-12-18T15:19:47.975Z,65.21
2022-12-18T15:22:30.219Z,65.10
2022-12-18T15:25:01.415Z,65.06
2022-12-18T15:27:36.044Z,65.40
2022-12-18T15:30:24.928Z,65.51
2022-12-18T15:33:14.492Z,65.50
2022-12-18T15:35:46.931Z,65.50
2022-12-18T15:38:16.069Z,65.25
2022-12-18T15:40:44.756Z,65.22
2022-12-18T15:43:31.772Z,65.20
2022-12-18T15:46:00.293Z,65.72
2022-12-18T15:48:29.118Z,65.93
2022-12-18T15:50:58.909Z,65.98
2022-12-18T15:53:31.151Z,65.86
2022-12-18T15:56:18.267Z,66.01
2022-12-18T15:58:46.938Z,66.41
2022-12-18T16:01:16.358Z,66.06
2022-12-18T16:03:45.555Z,65.90
2022-12-18T16:06:14.328Z,65.45
2022-12-18T16:08:43.233Z,65.72
2022-12-18T16:11:38.473Z,65.88
2022-12-18T16:14:18.414Z,65.87
2022-12-18T16:16:48.116Z,65.92
2022-12-18T16:19:17.250Z,65.81
2022-12-18T16:21:46.926Z,65.56
2022-12-18T16:24:17.229Z,65.93
2022-12-18T16:26:46.126Z,65.89
2022-12-18T16:29:15.115Z,65.55
2022-12-18T16:31:43.598Z,65.82
2022-12-18T16:34:19.086Z,65.83
2022-12-18T16:36:47.816Z,65.82
2022-12-18T16:39:17.280Z,65.59
2022-12-18T16:41:46.027Z,65.57
2022-12-18T16:44:15.226Z,65.59
2022-12-18T16:46:45.812Z,66.19
2022-12-18T16:49:15.608Z,65.87
2022-12-18T16:51:44.465Z,66.11
2022-12-18T16:54:18.661Z,66.14
2022-12-18T16:56:49.403Z,65.92
2022-12-18T16:59:17.917Z,65.38
2022-12-18T17:01:46.602Z,65.74
2022-12-18T17:04:16.743Z,65.92
2022-12-18T17:06:51.131Z,65.80
2022-12-18T17:09:23.676Z,65.84
2022-12-18T17:11:52.607Z,65.82
2022-12-18T17:14:23.035Z,66.20
2022-12-18T17:17:19.257Z,66.40
2022-12-18T17:19:40.682Z,66.38
2022-12-18T17:22:09.576Z,66.33
2022-12-18T17:24:38.670Z,66.28
2022-12-18T17:27:08.381Z,66.24
2022-12-18T17:29:39.134Z,66.37
2022-12-18T17:32:12.718Z,66.53
2022-12-18T17:34:42.492Z,66.35
2022-12-18T17:37:11.227Z,66.47
2022-12-18T17:39:40.076Z,66.08
2022-12-18T17:42:09.708Z,66.03
2022-12-18T17:44:41.850Z,66.12
2022-12-18T17:47:11.503Z,66.29
2022-12-18T17:49:40.169Z,66.35
2022-12-18T17:52:09.661Z,66.20
2022-12-18T17:54:41.345Z,66.19
2022-12-18T17:57:10.280Z,66.61
2022-12-18T17:59:38.920Z,66.70
2022-12-18T18:02:09.869Z,66.59
2022-12-18T18:04:38.967Z,66.76
2022-12-18T18:07:07.518Z,66.77
2022-12-18T18:09:36.481Z,66.39
2022-12-18T18:12:24.177Z,66.29
2022-12-18T18:14:53.165Z,66.13
2022-12-18T18:17:21.701Z,65.84
2022-12-18T18:19:50.455Z,65.85
2022-12-18T18:22:19.623Z,65.93
2022-12-18T18:24:49.064Z,66.17
2022-12-18T18:27:17.565Z,66.24
2022-12-18T18:29:47.085Z,66.32
2022-12-18T18:32:15.740Z,66.34
2022-12-18T18:34:44.426Z,66.54
2022-12-18T18:37:13.082Z,66.40
2022-12-18T18:39:41.763Z,66.29
2022-12-18T18:42:10.602Z,65.96
2022-12-18T18:44:39.154Z,66.02
2022-12-18T18:47:09.701Z,66.51
2022-12-18T18:49:38.788Z,66.70
2022-12-18T18:52:07.584Z,66.59
2022-12-18T18:54:36.318Z,66.50
2022-12-18T18:57:20.391Z,66.74
2022-12-18T18:59:49.827Z,66.07
2022-12-18T19:02:18.882Z,65.72
2022-12-18T19:04:47.710Z,65.57
2022-12-18T19:07:24.319Z,65.39
2022-12-18T19:10:05.097Z,65.66
2022-12-18T19:13:06.171Z,65.76
2022-12-18T19:15:35.039Z,65.73
2022-12-18T19:18:04.134Z,66.13
2022-12-18T19:20:33.086Z,65.96
2022-12-18T19:23:04.016Z,65.90
2022-12-18T19:25:41.658Z,65.93
2022-12-18T19:28:23.928Z,65.84
2022-12-18T19:30:58.779Z,65.77
2022-12-18T19:33:43.504Z,65.64
2022-12-18T19:36:18.972Z,65.95
2022-12-18T19:38:49.710Z,66.52
2022-12-18T19:41:27.574Z,66.55
2022-12-18T19:44:07.629Z,66.31
2022-12-18T19:46:42.330Z,65.86
2022-12-18T19:49:18.187Z,66.11
2022-12-18T19:51:52.155Z,65.78
2022-12-18T19:54:24.134Z,65.89
2022-12-18T19:56:57.217Z,65.71
2022-12-18T19:59:31.221Z,66.26
2022-12-18T20:02:00.588Z,66.60
2022-12-18T20:04:29.570Z,66.63
2022-12-18T20:06:58.414Z,66.47
2022-12-18T20:09:27.101Z,66.38
2022-12-18T20:11:56.093Z,66.49
2022-12-18T20:14:25.202Z,66.49
2022-12-18T20:16:54.372Z,66.58
2022-12-18T20:19:23.797Z,66.51
2022-12-18T20:21:53.311Z,66.32
2022-12-18T20:24:22.005Z,66.35
2022-12-18T20:26:50.778Z,66.40
2022-12-18T20:29:19.447Z,66.47
2022-12-18T20:31:48.547Z,66.85
2022-12-18T20:34:17.151Z,66.85
2022-12-18T20:36:45.733Z,66.99
2022-12-18T20:39:15.701Z,66.91
2022-12-18T20:41:45.060Z,67.11
2022-12-18T20:44:22.775Z,67.20
2022-12-18T20:46:55.753Z,67.44
2022-12-18T20:49:25.794Z,67.40
2022-12-18T20:51:56.807Z,67.51
2022-12-18T20:54:27.293Z,67.58
2022-12-18T20:56:56.332Z,67.65
2022-12-18T20:59:25.749Z,67.49
2022-12-18T21:01:54.623Z,67.13
2022-12-18T21:04:23.960Z,67.02
2022-12-18T21:07:01.874Z,67.06
2022-12-18T21:09:37.605Z,67.01
2022-12-18T21:12:35.155Z,67.20
2022-12-18T21:15:14.280Z,67.52
2022-12-18T21:17:45.108Z,67.34
2022-12-18T21:20:15.742Z,67.31
2022-12-18T21:22:48.638Z,67.11
2022-12-18T21:25:17.705Z,67.14
2022-12-18T21:27:46.200Z,67.20
2022-12-18T21:30:16.123Z,67.30
2022-12-18T21:32:44.822Z,67.03
2022-12-18T21:35:13.634Z,67.11
2022-12-18T21:37:42.176Z,67.16
2022-12-18T21:40:12.708Z,66.92
2022-12-18T21:42:58.699Z,66.89
2022-12-18T21:45:26.207Z,67.00
2022-12-18T21:47:54.711Z,66.92
2022-12-18T21:50:23.253Z,66.82
2022-12-18T21:52:51.829Z,66.64
2022-12-18T21:55:20.629Z,66.74
2022-12-18T21:57:49.691Z,66.49
2022-12-18T22:00:19.822Z,66.76
2022-12-18T22:03:01.150Z,66.92
2022-12-18T22:05:37.562Z,66.92
2022-12-18T22:08:07.346Z,66.85
2022-12-18T22:10:36.340Z,66.65
2022-12-18T22:13:06.783Z,66.86
2022-12-18T22:15:35.493Z,66.95
2022-12-18T22:18:04.488Z,66.63
2022-12-18T22:20:33.205Z,66.40
2022-12-18T22:23:06.340Z,66.86
2022-12-18T22:25:39.280Z,67.12
2022-12-18T22:28:26.839Z,67.34
2022-12-18T22:30:59.082Z,67.36
2022-12-18T22:33:28.892Z,67.48
2022-12-18T22:35:57.378Z,67.28
2022-12-18T22:38:25.855Z,67.26
2022-12-18T22:40:55.378Z,67.10
2022-12-18T22:43:23.959Z,67.25
2022-12-18T22:45:52.634Z,67.00
2022-12-18T22:48:21.526Z,66.57
2022-12-18T22:50:50.977Z,66.64
2022-12-18T22:53:22.666Z,66.85
2022-12-18T22:55:51.306Z,66.82
2022-12-18T22:58:19.963Z,66.19
2022-12-18T23:00:48.548Z,66.34
2022-12-18T23:03:16.856Z,66.55
2022-12-18T23:05:45.412Z,66.43
2022-12-18T23:08:13.997Z,66.44
2022-12-18T23:10:42.488Z,66.67
2022-12-18T23:13:11.011Z,66.56
2022-12-18T23:15:42.433Z,66.25
2022-12-18T23:18:11.978Z,66.19
2022-12-18T23:20:40.549Z,66.17
2022-12-18T23:23:10.320Z,66.04
2022-12-18T23:25:39.014Z,66.41
2022-12-18T23:28:07.947Z,66.54
2022-12-18T23:30:36.588Z,66.60
2022-12-18T23:33:05.479Z,66.40
2022-12-18T23:35:34.372Z,66.52
2022-12-18T23:38:02.997Z,66.15
2022-12-18T23:40:31.552Z,66.06
2022-12-18T23:43:00.465Z,66.19
2022-12-18T23:45:29.233Z,66.58
2022-12-18T23:47:57.818Z,66.45
2022-12-18T23:50:29.585Z,66.56
2022-12-18T23:53:04.941Z,66.62
2022-12-18T23:55:39.554Z,66.61
2022-12-18T23:58:14.885Z,66.51
